sensor_id;sensor_type;location;lat;lon;timestamp;pressure;altitude;pressure_sealevel;temperature;humidity
49979;BME280;35869;50.990;6.962;2022-07-05T00:01:28;101709.47;;;19.17;55.95
49979;BME280;35869;50.990;6.962;2022-07-05T00:06:29;101711.03;;;19.20;55.10
49979;BME280;35869;50.990;6.962;2022-07-05T00:11:29;101711.31;;;19.15;55.95
49979;BME280;35869;50.990;6.962;2022-07-05T00:16:29;101711.00;;;19.07;55.53
49979;BME280;35869;50.990;6.962;2022-07-05T00:21:29;101715.69;;;19.02;56.57
49979;BME280;35869;50.990;6.962;2022-07-05T00:26:30;101717.50;;;18.87;56.40
49979;BME280;35869;50.990;6.962;2022-07-05T00:31:30;101710.09;;;18.94;56.96
49979;BME280;35869;50.990;6.962;2022-07-05T00:36:30;101714.63;;;18.78;57.14
49979;BME280;35869;50.990;6.962;2022-07-05T00:41:31;101720.69;;;18.64;58.21
49979;BME280;35869;50.990;6.962;2022-07-05T00:46:31;101716.22;;;18.66;57.01
49979;BME280;35869;50.990;6.962;2022-07-05T00:51:35;101720.34;;;18.56;57.42
49979;BME280;35869;50.990;6.962;2022-07-05T00:56:36;101715.63;;;18.47;58.63
49979;BME280;35869;50.990;6.962;2022-07-05T01:01:36;101719.03;;;18.49;56.92
49979;BME280;35869;50.990;6.962;2022-07-05T01:06:38;101716.22;;;18.37;57.68
49979;BME280;35869;50.990;6.962;2022-07-05T01:11:39;101717.22;;;18.35;57.56
49979;BME280;35869;50.990;6.962;2022-07-05T01:16:40;101721.38;;;18.25;58.29
49979;BME280;35869;50.990;6.962;2022-07-05T01:21:41;101715.72;;;18.17;58.53
49979;BME280;35869;50.990;6.962;2022-07-05T01:26:45;101718.56;;;18.14;57.57
49979;BME280;35869;50.990;6.962;2022-07-05T01:31:46;101723.81;;;18.14;58.33
49979;BME280;35869;50.990;6.962;2022-07-05T01:36:46;101730.88;;;18.13;57.80
49979;BME280;35869;50.990;6.962;2022-07-05T01:41:48;101722.84;;;18.00;59.23
49979;BME280;35869;50.990;6.962;2022-07-05T01:46:51;101737.38;;;17.92;59.41
49979;BME280;35869;50.990;6.962;2022-07-05T01:51:55;101738.13;;;17.94;59.35
49979;BME280;35869;50.990;6.962;2022-07-05T01:56:58;101737.66;;;17.87;58.22
49979;BME280;35869;50.990;6.962;2022-07-05T02:01:58;101734.19;;;17.87;57.88
49979;BME280;35869;50.990;6.962;2022-07-05T02:06:58;101736.91;;;17.85;58.57
49979;BME280;35869;50.990;6.962;2022-07-05T02:11:59;101737.63;;;17.73;58.27
49979;BME280;35869;50.990;6.962;2022-07-05T02:17:00;101737.69;;;17.71;58.24
49979;BME280;35869;50.990;6.962;2022-07-05T02:22:00;101736.84;;;17.71;58.28
49979;BME280;35869;50.990;6.962;2022-07-05T02:27:00;101737.00;;;17.68;58.65
49979;BME280;35869;50.990;6.962;2022-07-05T02:32:01;101735.00;;;17.57;59.00
49979;BME280;35869;50.990;6.962;2022-07-05T02:37:01;101735.47;;;17.64;58.86
49979;BME280;35869;50.990;6.962;2022-07-05T02:42:01;101728.88;;;17.56;58.05
49979;BME280;35869;50.990;6.962;2022-07-05T02:47:01;101731.78;;;17.52;58.19
49979;BME280;35869;50.990;6.962;2022-07-05T02:52:02;101732.81;;;17.49;57.55
49979;BME280;35869;50.990;6.962;2022-07-05T02:57:02;101731.63;;;17.55;58.98
49979;BME280;35869;50.990;6.962;2022-07-05T03:02:03;101731.16;;;17.63;58.38
49979;BME280;35869;50.990;6.962;2022-07-05T03:07:03;101734.75;;;17.46;59.87
49979;BME280;35869;50.990;6.962;2022-07-05T03:12:04;101729.59;;;17.44;59.82
49979;BME280;35869;50.990;6.962;2022-07-05T03:17:04;101737.63;;;17.41;60.11
49979;BME280;35869;50.990;6.962;2022-07-05T03:22:04;101747.41;;;17.39;60.68
49979;BME280;35869;50.990;6.962;2022-07-05T03:27:04;101749.44;;;17.34;60.29
49979;BME280;35869;50.990;6.962;2022-07-05T03:32:05;101740.81;;;17.32;60.72
49979;BME280;35869;50.990;6.962;2022-07-05T03:37:05;101748.59;;;17.33;60.58
49979;BME280;35869;50.990;6.962;2022-07-05T03:42:06;101751.22;;;17.33;60.36
49979;BME280;35869;50.990;6.962;2022-07-05T03:47:06;101751.47;;;17.29;61.81
49979;BME280;35869;50.990;6.962;2022-07-05T03:52:06;101752.09;;;17.18;61.67
49979;BME280;35869;50.990;6.962;2022-07-05T03:57:07;101753.00;;;17.17;61.62
49979;BME280;35869;50.990;6.962;2022-07-05T04:02:07;101753.34;;;17.11;63.11
49979;BME280;35869;50.990;6.962;2022-07-05T04:07:07;101774.03;;;17.01;63.43
49979;BME280;35869;50.990;6.962;2022-07-05T04:12:08;101783.84;;;16.98;64.35
49979;BME280;35869;50.990;6.962;2022-07-05T04:17:08;101781.88;;;16.86;64.16
49979;BME280;35869;50.990;6.962;2022-07-05T04:22:08;101780.34;;;16.82;64.42
49979;BME280;35869;50.990;6.962;2022-07-05T04:27:08;101780.28;;;16.83;62.90
49979;BME280;35869;50.990;6.962;2022-07-05T04:32:08;101790.44;;;16.89;63.03
49979;BME280;35869;50.990;6.962;2022-07-05T04:37:09;101779.56;;;16.79;63.35
49979;BME280;35869;50.990;6.962;2022-07-05T04:42:09;101785.84;;;16.77;63.30
49979;BME280;35869;50.990;6.962;2022-07-05T04:47:09;101800.16;;;16.87;63.46
49979;BME280;35869;50.990;6.962;2022-07-05T04:52:09;101790.16;;;16.78;64.10
49979;BME280;35869;50.990;6.962;2022-07-05T04:57:10;101794.16;;;16.85;63.66
49979;BME280;35869;50.990;6.962;2022-07-05T05:02:10;101792.53;;;16.83;63.11
49979;BME280;35869;50.990;6.962;2022-07-05T05:07:10;101796.28;;;16.78;62.07
49979;BME280;35869;50.990;6.962;2022-07-05T05:12:10;101794.63;;;16.76;63.43
49979;BME280;35869;50.990;6.962;2022-07-05T05:17:11;101799.66;;;16.81;63.17
49979;BME280;35869;50.990;6.962;2022-07-05T05:22:11;101797.34;;;16.74;63.11
49979;BME280;35869;50.990;6.962;2022-07-05T05:27:11;101806.69;;;16.80;61.96
49979;BME280;35869;50.990;6.962;2022-07-05T05:32:11;101812.88;;;16.79;60.11
49979;BME280;35869;50.990;6.962;2022-07-05T05:37:12;101812.88;;;16.79;61.77
49979;BME280;35869;50.990;6.962;2022-07-05T05:42:12;101811.69;;;16.85;60.75
49979;BME280;35869;50.990;6.962;2022-07-05T05:47:12;101810.84;;;16.84;59.74
49979;BME280;35869;50.990;6.962;2022-07-05T05:52:12;101812.22;;;16.91;59.50
49979;BME280;35869;50.990;6.962;2022-07-05T05:57:13;101820.25;;;16.88;62.32
49979;BME280;35869;50.990;6.962;2022-07-05T06:02:13;101822.25;;;17.00;62.89
49979;BME280;35869;50.990;6.962;2022-07-05T06:07:13;101825.63;;;17.02;62.03
49979;BME280;35869;50.990;6.962;2022-07-05T06:12:14;101820.47;;;17.01;59.41
49979;BME280;35869;50.990;6.962;2022-07-05T06:17:14;101822.75;;;17.07;58.77
49979;BME280;35869;50.990;6.962;2022-07-05T06:22:14;101831.16;;;17.14;61.53
49979;BME280;35869;50.990;6.962;2022-07-05T06:27:15;101838.25;;;17.12;59.80
49979;BME280;35869;50.990;6.962;2022-07-05T06:32:15;101838.97;;;17.31;63.47
49979;BME280;35869;50.990;6.962;2022-07-05T06:37:15;101842.84;;;17.40;62.99
49979;BME280;35869;50.990;6.962;2022-07-05T06:42:16;101851.19;;;17.48;63.02
49979;BME280;35869;50.990;6.962;2022-07-05T06:47:16;101845.91;;;17.64;63.06
49979;BME280;35869;50.990;6.962;2022-07-05T06:52:16;101844.50;;;17.74;61.61
49979;BME280;35869;50.990;6.962;2022-07-05T06:57:23;101850.16;;;17.82;62.19
49979;BME280;35869;50.990;6.962;2022-07-05T07:02:23;101852.66;;;17.99;62.60
49979;BME280;35869;50.990;6.962;2022-07-05T07:07:23;101851.34;;;17.92;63.17
49979;BME280;35869;50.990;6.962;2022-07-05T07:12:24;101857.75;;;18.18;61.53
49979;BME280;35869;50.990;6.962;2022-07-05T07:17:24;101855.97;;;18.19;59.75
49979;BME280;35869;50.990;6.962;2022-07-05T07:22:25;101856.13;;;18.16;59.19
49979;BME280;35869;50.990;6.962;2022-07-05T07:27:25;101857.03;;;18.45;58.05
49979;BME280;35869;50.990;6.962;2022-07-05T07:32:25;101856.94;;;18.46;57.71
49979;BME280;35869;50.990;6.962;2022-07-05T07:37:26;101857.53;;;18.51;57.43
49979;BME280;35869;50.990;6.962;2022-07-05T07:42:26;101863.50;;;18.69;58.15
49979;BME280;35869;50.990;6.962;2022-07-05T07:47:26;101866.44;;;18.79;57.83
49979;BME280;35869;50.990;6.962;2022-07-05T07:52:27;101867.00;;;18.70;57.75
49979;BME280;35869;50.990;6.962;2022-07-05T07:57:27;101874.34;;;18.79;57.89
49979;BME280;35869;50.990;6.962;2022-07-05T08:02:27;101879.34;;;18.98;57.21
49979;BME280;35869;50.990;6.962;2022-07-05T08:07:28;101872.84;;;19.32;58.03
49979;BME280;35869;50.990;6.962;2022-07-05T08:12:31;101878.00;;;19.33;56.89
49979;BME280;35869;50.990;6.962;2022-07-05T08:17:31;101877.16;;;19.33;57.21
49979;BME280;35869;50.990;6.962;2022-07-05T08:22:31;101868.50;;;19.59;56.43
49979;BME280;35869;50.990;6.962;2022-07-05T08:27:32;101866.75;;;19.73;55.99
49979;BME280;35869;50.990;6.962;2022-07-05T08:32:32;101869.28;;;19.74;54.64
49979;BME280;35869;50.990;6.962;2022-07-05T08:37:32;101874.38;;;19.77;54.53
49979;BME280;35869;50.990;6.962;2022-07-05T08:42:33;101871.78;;;19.90;54.04
49979;BME280;35869;50.990;6.962;2022-07-05T08:47:34;101866.16;;;19.82;54.99
49979;BME280;35869;50.990;6.962;2022-07-05T08:52:35;101872.63;;;20.17;53.34
49979;BME280;35869;50.990;6.962;2022-07-05T08:57:36;101869.00;;;20.06;54.22
49979;BME280;35869;50.990;6.962;2022-07-05T09:02:36;101869.94;;;20.57;54.08
49979;BME280;35869;50.990;6.962;2022-07-05T09:07:42;101863.84;;;20.95;51.90
49979;BME280;35869;50.990;6.962;2022-07-05T09:12:44;101874.06;;;21.12;52.60
49979;BME280;35869;50.990;6.962;2022-07-05T09:17:44;101871.91;;;21.43;52.24
49979;BME280;35869;50.990;6.962;2022-07-05T09:22:52;101869.69;;;21.97;50.36
49979;BME280;35869;50.990;6.962;2022-07-05T09:28:00;101861.19;;;22.29;48.50
49979;BME280;35869;50.990;6.962;2022-07-05T09:33:09;101870.00;;;22.41;49.58
49979;BME280;35869;50.990;6.962;2022-07-05T09:38:20;101868.59;;;22.59;48.77
49979;BME280;35869;50.990;6.962;2022-07-05T09:43:25;101862.41;;;23.16;47.11
49979;BME280;35869;50.990;6.962;2022-07-05T09:48:27;101867.56;;;23.40;48.21
49979;BME280;35869;50.990;6.962;2022-07-05T09:53:49;101852.50;;;23.84;46.60
49979;BME280;35869;50.990;6.962;2022-07-05T09:58:49;101859.06;;;24.01;45.88
49979;BME280;35869;50.990;6.962;2022-07-05T10:03:58;101862.63;;;24.64;44.49
49979;BME280;35869;50.990;6.962;2022-07-05T10:09:05;101852.69;;;24.96;45.85
49979;BME280;35869;50.990;6.962;2022-07-05T10:14:15;101857.47;;;25.03;43.23
49979;BME280;35869;50.990;6.962;2022-07-05T10:19:19;101852.81;;;25.25;42.42
49979;BME280;35869;50.990;6.962;2022-07-05T10:24:32;101858.16;;;25.35;41.97
49979;BME280;35869;50.990;6.962;2022-07-05T10:29:34;101860.66;;;25.77;41.30
49979;BME280;35869;50.990;6.962;2022-07-05T10:34:41;101850.28;;;25.84;42.05
49979;BME280;35869;50.990;6.962;2022-07-05T10:39:41;101851.53;;;26.09;40.71
49979;BME280;35869;50.990;6.962;2022-07-05T10:44:42;101842.97;;;25.95;41.73
49979;BME280;35869;50.990;6.962;2022-07-05T10:49:42;101853.38;;;25.89;40.26
49979;BME280;35869;50.990;6.962;2022-07-05T10:55:18;101847.22;;;25.98;41.00
49979;BME280;35869;50.990;6.962;2022-07-05T11:00:18;101848.75;;;26.10;40.58
49979;BME280;35869;50.990;6.962;2022-07-05T11:05:19;101841.53;;;26.30;40.95
49979;BME280;35869;50.990;6.962;2022-07-05T11:10:19;101848.31;;;25.95;39.21
49979;BME280;35869;50.990;6.962;2022-07-05T11:15:19;101832.63;;;25.92;38.97
49979;BME280;35869;50.990;6.962;2022-07-05T11:20:33;101854.75;;;26.51;40.17
49979;BME280;35869;50.990;6.962;2022-07-05T11:25:36;101846.59;;;26.43;39.87
49979;BME280;35869;50.990;6.962;2022-07-05T11:30:50;101838.19;;;26.47;40.15
49979;BME280;35869;50.990;6.962;2022-07-05T11:35:50;101836.03;;;26.61;40.08
49979;BME280;35869;50.990;6.962;2022-07-05T11:40:50;101836.19;;;26.49;38.67
49979;BME280;35869;50.990;6.962;2022-07-05T11:45:58;101830.84;;;27.24;38.98
49979;BME280;35869;50.990;6.962;2022-07-05T11:51:11;101822.94;;;27.04;38.37
49979;BME280;35869;50.990;6.962;2022-07-05T11:56:12;101829.34;;;26.84;37.75
49979;BME280;35869;50.990;6.962;2022-07-05T12:01:12;101822.91;;;27.14;37.59
49979;BME280;35869;50.990;6.962;2022-07-05T12:06:13;101818.59;;;26.66;36.98
49979;BME280;35869;50.990;6.962;2022-07-05T12:11:14;101801.84;;;27.11;37.11
49979;BME280;35869;50.990;6.962;2022-07-05T12:16:14;101801.06;;;26.91;36.24
49979;BME280;35869;50.990;6.962;2022-07-05T12:21:15;101805.69;;;26.99;36.30
49979;BME280;35869;50.990;6.962;2022-07-05T12:26:17;101801.91;;;27.64;37.67
49979;BME280;35869;50.990;6.962;2022-07-05T12:31:22;101795.28;;;27.51;37.15
49979;BME280;35869;50.990;6.962;2022-07-05T12:36:23;101803.81;;;27.54;35.26
49979;BME280;35869;50.990;6.962;2022-07-05T12:41:23;101797.00;;;27.42;36.47
49979;BME280;35869;50.990;6.962;2022-07-05T12:51:38;101787.09;;;27.88;36.32
49979;BME280;35869;50.990;6.962;2022-07-05T12:56:39;101798.94;;;27.85;35.56
49979;BME280;35869;50.990;6.962;2022-07-05T13:01:41;101793.22;;;27.62;36.42
49979;BME280;35869;50.990;6.962;2022-07-05T13:06:53;101792.44;;;27.52;35.89
49979;BME280;35869;50.990;6.962;2022-07-05T13:17:14;101797.25;;;28.54;36.40
49979;BME280;35869;50.990;6.962;2022-07-05T13:22:15;101798.16;;;28.37;36.25
49979;BME280;35869;50.990;6.962;2022-07-05T13:27:15;101808.41;;;27.98;36.12
49979;BME280;35869;50.990;6.962;2022-07-05T13:32:15;101811.91;;;27.98;36.29
49979;BME280;35869;50.990;6.962;2022-07-05T13:37:15;101807.94;;;27.84;36.38
49979;BME280;35869;50.990;6.962;2022-07-05T13:42:16;101811.75;;;28.26;35.76
49979;BME280;35869;50.990;6.962;2022-07-05T13:47:16;101811.19;;;27.96;36.28
49979;BME280;35869;50.990;6.962;2022-07-05T13:52:16;101800.84;;;27.93;36.74
49979;BME280;35869;50.990;6.962;2022-07-05T13:57:16;101810.13;;;27.53;36.18
49979;BME280;35869;50.990;6.962;2022-07-05T14:02:16;101817.34;;;27.71;37.08
49979;BME280;35869;50.990;6.962;2022-07-05T14:07:17;101797.94;;;27.69;36.35
49979;BME280;35869;50.990;6.962;2022-07-05T14:12:17;101810.34;;;27.42;36.41
49979;BME280;35869;50.990;6.962;2022-07-05T14:17:17;101802.94;;;27.18;36.78
49979;BME280;35869;50.990;6.962;2022-07-05T14:22:17;101795.94;;;27.35;36.49
49979;BME280;35869;50.990;6.962;2022-07-05T14:27:17;101791.50;;;27.26;37.50
49979;BME280;35869;50.990;6.962;2022-07-05T14:32:17;101785.69;;;27.13;36.29
49979;BME280;35869;50.990;6.962;2022-07-05T14:37:18;101780.47;;;26.83;36.44
49979;BME280;35869;50.990;6.962;2022-07-05T14:42:18;101777.00;;;27.10;36.34
49979;BME280;35869;50.990;6.962;2022-07-05T14:47:18;101779.53;;;27.02;37.17
49979;BME280;35869;50.990;6.962;2022-07-05T14:52:18;101772.53;;;27.01;37.46
49979;BME280;35869;50.990;6.962;2022-07-05T14:57:19;101771.16;;;26.70;36.73
49979;BME280;35869;50.990;6.962;2022-07-05T15:02:19;101756.28;;;26.95;37.04
49979;BME280;35869;50.990;6.962;2022-07-05T15:07:20;101762.34;;;27.15;36.93
49979;BME280;35869;50.990;6.962;2022-07-05T15:12:20;101762.53;;;26.48;36.13
49979;BME280;35869;50.990;6.962;2022-07-05T15:17:21;101760.56;;;26.50;36.56
49979;BME280;35869;50.990;6.962;2022-07-05T15:22:21;101745.47;;;26.69;35.59
49979;BME280;35869;50.990;6.962;2022-07-05T15:27:21;101746.31;;;26.69;37.50
49979;BME280;35869;50.990;6.962;2022-07-05T15:32:22;101754.13;;;26.43;36.86
49979;BME280;35869;50.990;6.962;2022-07-05T15:37:22;101749.25;;;26.29;36.95
49979;BME280;35869;50.990;6.962;2022-07-05T15:42:22;101755.56;;;26.28;36.04
49979;BME280;35869;50.990;6.962;2022-07-05T15:47:22;101764.09;;;26.31;37.14
49979;BME280;35869;50.990;6.962;2022-07-05T15:52:23;101761.75;;;26.28;37.47
49979;BME280;35869;50.990;6.962;2022-07-05T15:57:23;101760.25;;;26.07;37.82
49979;BME280;35869;50.990;6.962;2022-07-05T16:02:24;101761.66;;;25.72;39.56
49979;BME280;35869;50.990;6.962;2022-07-05T16:07:24;101756.06;;;25.85;38.92
49979;BME280;35869;50.990;6.962;2022-07-05T16:12:25;101755.25;;;25.74;39.73
49979;BME280;35869;50.990;6.962;2022-07-05T16:17:25;101763.09;;;25.57;40.11
49979;BME280;35869;50.990;6.962;2022-07-05T16:22:25;101766.00;;;25.53;40.84
49979;BME280;35869;50.990;6.962;2022-07-05T16:27:26;101765.03;;;25.55;40.49
49979;BME280;35869;50.990;6.962;2022-07-05T16:32:26;101768.13;;;25.40;40.79
49979;BME280;35869;50.990;6.962;2022-07-05T16:37:26;101774.50;;;25.09;41.25
49979;BME280;35869;50.990;6.962;2022-07-05T16:42:26;101766.97;;;25.23;41.02
49979;BME280;35869;50.990;6.962;2022-07-05T16:47:26;101774.63;;;25.07;41.08
49979;BME280;35869;50.990;6.962;2022-07-05T16:52:27;101772.75;;;24.88;42.04
49979;BME280;35869;50.990;6.962;2022-07-05T16:57:27;101779.69;;;24.80;42.03
49979;BME280;35869;50.990;6.962;2022-07-05T17:02:27;101783.72;;;24.74;42.06
49979;BME280;35869;50.990;6.962;2022-07-05T17:07:27;101793.38;;;24.44;42.12
49979;BME280;35869;50.990;6.962;2022-07-05T17:12:28;101802.13;;;24.56;42.07
49979;BME280;35869;50.990;6.962;2022-07-05T17:17:28;101806.16;;;24.51;42.67
49979;BME280;35869;50.990;6.962;2022-07-05T17:22:29;101810.69;;;24.39;42.55
49979;BME280;35869;50.990;6.962;2022-07-05T17:27:29;101814.53;;;24.04;43.88
49979;BME280;35869;50.990;6.962;2022-07-05T17:32:29;101816.78;;;24.09;43.71
49979;BME280;35869;50.990;6.962;2022-07-05T17:37:29;101818.97;;;24.04;43.20
49979;BME280;35869;50.990;6.962;2022-07-05T17:42:30;101824.09;;;23.96;43.74
49979;BME280;35869;50.990;6.962;2022-07-05T17:47:30;101831.94;;;23.65;44.66
49979;BME280;35869;50.990;6.962;2022-07-05T17:52:31;101832.19;;;23.62;44.36
49979;BME280;35869;50.990;6.962;2022-07-05T17:57:31;101838.44;;;23.61;43.59
49979;BME280;35869;50.990;6.962;2022-07-05T18:02:31;101844.72;;;23.49;44.76
49979;BME280;35869;50.990;6.962;2022-07-05T18:07:31;101843.94;;;23.26;45.10
49979;BME280;35869;50.990;6.962;2022-07-05T18:12:32;101847.91;;;23.20;44.74
49979;BME280;35869;50.990;6.962;2022-07-05T18:17:33;101848.28;;;23.15;44.03
49979;BME280;35869;50.990;6.962;2022-07-05T18:22:33;101855.88;;;23.09;45.38
49979;BME280;35869;50.990;6.962;2022-07-05T18:27:33;101860.59;;;22.94;45.37
49979;BME280;35869;50.990;6.962;2022-07-05T18:32:34;101857.59;;;22.87;44.90
49979;BME280;35869;50.990;6.962;2022-07-05T18:37:35;101858.25;;;22.78;45.47
49979;BME280;35869;50.990;6.962;2022-07-05T18:42:35;101867.53;;;22.84;45.48
49979;BME280;35869;50.990;6.962;2022-07-05T18:47:36;101870.53;;;22.68;45.13
49979;BME280;35869;50.990;6.962;2022-07-05T18:52:36;101882.66;;;22.48;45.16
49979;BME280;35869;50.990;6.962;2022-07-05T18:57:37;101892.06;;;22.41;45.93
49979;BME280;35869;50.990;6.962;2022-07-05T19:02:37;101896.22;;;22.32;45.54
49979;BME280;35869;50.990;6.962;2022-07-05T19:07:37;101899.53;;;22.12;45.42
49979;BME280;35869;50.990;6.962;2022-07-05T19:12:38;101913.72;;;22.11;45.46
49979;BME280;35869;50.990;6.962;2022-07-05T19:17:38;101909.00;;;21.91;45.58
49979;BME280;35869;50.990;6.962;2022-07-05T19:22:38;101915.06;;;21.80;45.36
49979;BME280;35869;50.990;6.962;2022-07-05T19:27:39;101915.06;;;21.80;45.64
49979;BME280;35869;50.990;6.962;2022-07-05T19:32:39;101921.91;;;21.71;45.20
49979;BME280;35869;50.990;6.962;2022-07-05T19:37:39;101925.31;;;21.61;45.50
49979;BME280;35869;50.990;6.962;2022-07-05T19:42:39;101932.97;;;21.52;45.89
49979;BME280;35869;50.990;6.962;2022-07-05T19:47:40;101947.38;;;21.23;46.32
49979;BME280;35869;50.990;6.962;2022-07-05T19:52:40;101952.97;;;21.18;45.89
49979;BME280;35869;50.990;6.962;2022-07-05T19:57:40;101964.06;;;21.23;46.48
49979;BME280;35869;50.990;6.962;2022-07-05T20:02:40;101966.19;;;21.06;45.90
49979;BME280;35869;50.990;6.962;2022-07-05T20:07:41;101977.25;;;21.11;46.10
49979;BME280;35869;50.990;6.962;2022-07-05T20:12:41;101982.47;;;20.99;46.36
49979;BME280;35869;50.990;6.962;2022-07-05T20:17:41;101992.38;;;20.83;46.99
49979;BME280;35869;50.990;6.962;2022-07-05T20:22:42;101997.78;;;20.82;46.44
49979;BME280;35869;50.990;6.962;2022-07-05T20:27:42;101993.28;;;20.69;47.30
49979;BME280;35869;50.990;6.962;2022-07-05T20:32:42;101986.16;;;20.57;47.01
49979;BME280;35869;50.990;6.962;2022-07-05T20:37:42;101999.59;;;20.40;47.45
49979;BME280;35869;50.990;6.962;2022-07-05T20:42:43;101995.94;;;20.42;47.02
49979;BME280;35869;50.990;6.962;2022-07-05T20:47:43;102016.31;;;20.40;47.77
49979;BME280;35869;50.990;6.962;2022-07-05T20:52:43;102012.31;;;20.20;47.15
49979;BME280;35869;50.990;6.962;2022-07-05T20:57:43;102023.44;;;20.26;47.90
49979;BME280;35869;50.990;6.962;2022-07-05T21:02:44;102033.28;;;20.09;47.21
49979;BME280;35869;50.990;6.962;2022-07-05T21:07:44;102033.47;;;20.06;47.83
49979;BME280;35869;50.990;6.962;2022-07-05T21:12:44;102044.03;;;19.92;47.90
49979;BME280;35869;50.990;6.962;2022-07-05T21:17:45;102050.09;;;19.94;47.99
49979;BME280;35869;50.990;6.962;2022-07-05T21:22:46;102056.03;;;19.83;48.15
49979;BME280;35869;50.990;6.962;2022-07-05T21:27:46;102060.75;;;19.78;47.93
49979;BME280;35869;50.990;6.962;2022-07-05T21:32:46;102076.84;;;19.74;48.85
49979;BME280;35869;50.990;6.962;2022-07-05T21:37:46;102074.31;;;19.72;48.00
49979;BME280;35869;50.990;6.962;2022-07-05T21:42:47;102078.28;;;19.65;48.81
49979;BME280;35869;50.990;6.962;2022-07-05T21:47:47;102087.69;;;19.39;48.72
49979;BME280;35869;50.990;6.962;2022-07-05T21:52:47;102089.03;;;19.46;49.22
49979;BME280;35869;50.990;6.962;2022-07-05T21:57:48;102094.00;;;19.36;49.27
49979;BME280;35869;50.990;6.962;2022-07-05T22:02:48;102103.78;;;19.34;49.88
49979;BME280;35869;50.990;6.962;2022-07-05T22:07:48;102109.66;;;19.09;50.97
49979;BME280;35869;50.990;6.962;2022-07-05T22:12:48;102116.78;;;19.23;50.17
49979;BME280;35869;50.990;6.962;2022-07-05T22:17:49;102114.56;;;19.15;51.01
49979;BME280;35869;50.990;6.962;2022-07-05T22:22:49;102129.13;;;19.07;51.24
49979;BME280;35869;50.990;6.962;2022-07-05T22:27:49;102124.72;;;19.07;51.07
49979;BME280;35869;50.990;6.962;2022-07-05T22:32:49;102137.56;;;18.82;52.03
49979;BME280;35869;50.990;6.962;2022-07-05T22:37:50;102131.53;;;18.80;52.09
49979;BME280;35869;50.990;6.962;2022-07-05T22:42:50;102131.28;;;18.69;51.30
49979;BME280;35869;50.990;6.962;2022-07-05T22:47:50;102127.97;;;18.81;51.45
49979;BME280;35869;50.990;6.962;2022-07-05T22:52:50;102126.97;;;18.68;51.24
49979;BME280;35869;50.990;6.962;2022-07-05T22:57:50;102134.91;;;18.50;51.28
49979;BME280;35869;50.990;6.962;2022-07-05T23:02:51;102141.78;;;18.37;51.09
49979;BME280;35869;50.990;6.962;2022-07-05T23:07:51;102136.09;;;18.45;50.70
49979;BME280;35869;50.990;6.962;2022-07-05T23:12:52;102136.78;;;18.32;51.26
49979;BME280;35869;50.990;6.962;2022-07-05T23:17:52;102138.91;;;18.26;51.52
49979;BME280;35869;50.990;6.962;2022-07-05T23:22:52;102146.50;;;18.15;51.13
49979;BME280;35869;50.990;6.962;2022-07-05T23:27:53;102143.13;;;18.13;51.21
49979;BME280;35869;50.990;6.962;2022-07-05T23:32:53;102146.97;;;18.05;51.83
49979;BME280;35869;50.990;6.962;2022-07-05T23:37:53;102142.06;;;17.99;52.24
49979;BME280;35869;50.990;6.962;2022-07-05T23:42:54;102150.47;;;17.73;53.45
49979;BME280;35869;50.990;6.962;2022-07-05T23:47:54;102145.56;;;17.65;54.13
49979;BME280;35869;50.990;6.962;2022-07-05T23:52:54;102147.19;;;17.68;53.57
49979;BME280;35869;50.990;6.962;2022-07-05T23:57:54;102156.53;;;17.39;53.58
